Time;durP1;ratioP1;P1;durP2;ratioP2;P2;SDS_P1;SDS_P2;PMS_P1;PMS_P2;Temp;Humidity;BMP_temperature;BMP_pressure;BME280_temperature;BME280_humidity;BME280_pressure;Samples;Min_cycle;Max_cycle;Signal;HPM_P1;HPM_P2
2023/05/24 00:00:11;;;;;;;8.07;4.65;;;;;;;22.00;63.63;99650.25;4437559;32;35044;-82
2023/05/24 00:02:40;;;;;;;8.95;4.53;;;;;;;21.75;64.48;99642.44;4437638;32;33630;-80
2023/05/24 00:05:09;;;;;;;;;;;;;;;22.32;62.64;99649.25;4437853;32;33485;-79
2023/05/24 00:07:37;;;;;;;;;;;;;;;21.86;64.74;99644.13;4433597;32;33838;-82
2023/05/24 00:10:05;;;;;;;;;;;;;;;21.30;65.23;99638.09;4424019;32;34271;-80
2023/05/24 00:12:32;;;;;;;;;;;;;;;21.10;66.79;99630.22;4423794;32;33577;-79
2023/05/24 00:14:59;;;;;;;;;;;;;;;22.33;62.64;99643.97;4437243;32;34137;-82
2023/05/24 00:17:29;;;;;;;;;;;;;;;22.91;60.16;99629.47;4443697;32;33273;-79
2023/05/24 00:19:56;;;;;;;;;;;;;;;20.92;67.73;99637.25;4437817;32;32934;-81
2023/05/24 00:22:23;;;;;;;;;;;;;;;22.09;63.01;99637.00;4437192;32;33424;-81
2023/05/24 00:24:51;;;;;;;;;;;;;;;23.25;58.41;99629.19;4437851;32;34010;-80
2023/05/24 00:27:18;;;;;;;;;;;;;;;23.57;57.21;99630.66;4437822;32;34520;-80
2023/05/24 00:29:46;;;;;;;;;;;;;;;23.50;57.49;99618.38;4437564;32;34807;-80
2023/05/24 00:32:13;;;;;;;;;;;;;;;23.28;58.17;99625.66;4437829;32;33518;-81
2023/05/24 00:34:41;;;;;;;;;;;;;;;23.74;56.89;99623.41;4437536;32;33724;-82
2023/05/24 00:37:11;;;;;;;;;;;;;;;23.79;56.31;99622.50;4437783;32;33964;-81
2023/05/24 00:39:40;;;;;;;;;;;;;;;22.63;59.57;99615.59;4437625;32;34228;-80
2023/05/24 00:42:07;;;;;;;;;;;;;;;19.83;70.89;99619.44;4437683;32;34304;-79
2023/05/24 00:44:34;;;;;;;;;;;;;;;19.03;74.78;99621.56;4437942;32;33725;-81
2023/05/24 00:47:02;;;;;;;;;;;;;;;18.94;75.46;99621.47;4446416;32;33571;-82
2023/05/24 00:49:30;;;;;;;;;;;;;;;18.96;76.08;99622.38;4440815;32;34202;-80
2023/05/24 00:51:57;;;;;;;;;;;;;;;18.77;76.29;99615.19;4423911;32;32928;-79
2023/05/24 00:54:25;;;;;;;;;;;;;;;19.88;71.60;99616.84;4423818;32;34010;-79
2023/05/24 00:56:52;;;;;;;;;;;;;;;21.10;67.23;99624.97;4431215;32;34164;-82
2023/05/24 00:59:20;;;;;;;;;;;;;;;20.87;67.42;99628.47;4428294;32;34493;-80
2023/05/24 01:01:47;;;;;;;5.93;3.42;;;;;;;21.70;63.49;99632.78;4423101;32;33834;-80
2023/05/24 01:04:19;;;;;;;6.82;3.40;;;;;;;21.39;64.60;99631.06;4437534;32;34579;-82
2023/05/24 01:07:19;;;;;;;7.45;4.43;;;;;;;21.19;65.53;99631.09;4443665;32;34583;-79
2023/05/24 01:09:50;;;;;;;;;;;;;;;20.90;66.82;99639.03;4437567;32;33923;-79
2023/05/24 01:12:24;;;;;;;;;;;;;;;21.86;63.72;99636.22;4423819;32;33089;-80
2023/05/24 01:14:55;;;;;;;;;;;;;;;21.82;63.56;99626.59;4428454;32;33807;-79
2023/05/24 01:17:26;;;;;;;;;;;;;;;19.73;72.42;99630.78;4439179;32;33338;-83
2023/05/24 01:20:10;;;;;;;;;;;;;;;21.76;64.95;99628.34;4438838;32;35227;-81
2023/05/24 01:22:57;;;;;;;;;;;;;;;21.76;64.11;99628.34;4423790;32;33260;-79
2023/05/24 01:25:34;;;;;;;;;;;;;;;21.50;66.18;99619.63;4437677;32;34260;-80
2023/05/24 01:28:03;;;;;;;;;;;;;;;19.28;75.82;99618.22;4446223;32;33632;-81
2023/05/24 01:30:30;;;;;;;;;;;;;;;21.20;68.32;99616.16;4433493;32;34055;-82
2023/05/24 01:32:57;;;;;;;;;;;;;;;19.68;73.36;99624.59;4437568;32;33610;-80
2023/05/24 01:35:25;;;;;;;;;;;;;;;21.15;67.54;99618.81;4423515;32;34338;-81
2023/05/24 01:37:52;;;;;;;;;;;;;;;21.52;66.69;99617.91;4445236;32;34130;-82
2023/05/24 01:40:19;;;;;;;;;;;;;;;20.49;69.32;99609.97;4438412;32;35085;-81
2023/05/24 01:43:07;;;;;;;;;;;;;;;19.59;74.18;99614.91;4427163;32;32916;-83
2023/05/24 01:45:49;;;;;;;;;;;;;;;19.02;77.72;99601.41;4413408;32;34739;-81
2023/05/24 01:48:20;;;;;;;;;;;;;;;21.21;68.21;99604.75;4437893;32;32522;-82
2023/05/24 01:50:48;;;;;;;;;;;;;;;21.57;65.30;99610.84;4443524;32;34313;-83
2023/05/24 01:53:17;;;;;;;;;;;;;;;19.92;72.24;99612.47;4417736;32;32966;-84
2023/05/24 01:55:44;;;;;;;;;;;;;;;19.22;77.17;99613.84;4431936;32;34302;-81
2023/05/24 01:58:11;;;;;;;;;;;;;;;18.58;79.74;99609.78;4430352;32;34015;-82
2023/05/24 02:00:39;;;;;;;;;;;;;;;19.30;77.03;99606.88;4420599;32;33706;-81
2023/05/24 02:03:07;;;;;;;;;;;;;;;21.14;69.22;99608.28;4430242;32;33669;-84
2023/05/24 02:05:35;;;;;;;;;;;;;;;19.73;73.84;99606.25;4423260;32;34863;-83
2023/05/24 02:08:04;;;;;;;;;;;;;;;19.53;75.38;99614.00;4423069;32;34118;-79
2023/05/24 02:10:32;;;;;;;;;;;;;;;18.61;79.75;99615.06;4429196;32;34134;-83
2023/05/24 02:12:59;;;;;;;;;;;;;;;19.04;77.71;99609.31;4422093;32;34079;-80
2023/05/24 02:15:29;;;;;;;;;;;;;;;19.67;75.20;99611.47;4432843;32;34475;-80
2023/05/24 02:17:57;;;;;;;;;;;;;;;20.18;73.74;99621.31;4423334;32;33290;-83
2023/05/24 02:20:25;;;;;;;;;;;;;;;22.81;62.00;99617.22;4419958;32;33886;-83
2023/05/24 02:22:52;;;;;;;;;;;;;;;23.53;58.61;99607.78;4427750;32;33850;-82
2023/05/24 02:25:20;;;;;;;;;;;;;;;23.42;58.75;99609.66;4425685;32;34744;-80
2023/05/24 02:27:48;;;;;;;;;;;;;;;23.22;58.95;99602.81;4424133;32;34200;-80
2023/05/24 02:30:15;;;;;;;;;;;;;;;23.26;58.96;99604.53;4429634;32;34051;-81
2023/05/24 02:32:45;;;;;;;;;;;;;;;22.74;60.76;99599.69;4425450;32;33708;-80
2023/05/24 02:35:13;;;;;;;;;;;;;;;23.17;59.54;99601.97;4429656;32;34865;-80
2023/05/24 02:37:40;;;;;;;;;;;;;;;22.85;60.34;99597.84;4429682;32;34085;-82
2023/05/24 02:40:08;;;;;;;;;;;;;;;21.18;65.89;99602.13;4409145;32;34490;-82
2023/05/24 02:42:35;;;;;;;;;;;;;;;22.38;63.08;99601.69;4419242;32;33916;-80
2023/05/24 02:45:03;;;;;;;;;;;;;;;22.51;61.89;99592.81;4422392;32;33102;-82
2023/05/24 02:47:30;;;;;;;;;;;;;;;23.00;60.37;99585.38;4423195;32;33871;-83
2023/05/24 02:49:58;;;;;;;;;;;;;;;22.83;60.65;99583.78;4424966;32;34454;-83
2023/05/24 02:52:25;;;;;;;;;;;;;;;23.15;59.47;99594.06;4433343;32;34349;-80
2023/05/24 02:54:52;;;;;;;;;;;;;;;23.42;58.28;99588.53;4446047;32;33856;-81
2023/05/24 02:57:20;;;;;;;;;;;;;;;22.57;60.47;99587.47;4424468;32;34249;-81
2023/05/24 02:59:47;;;;;;;;;;;;;;;22.83;59.45;99583.78;4438509;32;34878;-83
2023/05/24 03:02:16;;;;;;;;;;;;;;;22.82;59.28;99584.66;4442411;32;34233;-82
2023/05/24 03:04:44;;;;;;;;;;;;;;;22.25;60.58;99595.66;4428539;32;33886;-82
2023/05/24 03:07:13;;;;;;;;;;;;;;;22.53;60.07;99593.69;4443918;32;33769;-80
2023/05/24 03:09:41;;;;;;;;;;;;;;;22.18;60.81;99593.88;4424696;32;34615;-84
2023/05/24 03:12:09;;;;;;;;;;;;;;;22.11;61.54;99595.66;4438694;32;33701;-84
2023/05/24 03:14:37;;;;;;;;;;;;;;;21.55;63.21;99604.69;4438150;32;34044;-83
2023/05/24 03:17:04;;;;;;;;;;;;;;;22.06;61.63;99605.37;4411658;32;33152;-80
2023/05/24 03:19:32;;;;;;;;;;;;;;;21.05;64.73;99603.00;4438285;32;33888;-80
2023/05/24 03:22:00;;;;;;;;;;;;;;;20.89;65.66;99605.66;4438411;32;33561;-81
2023/05/24 03:24:27;;;;;;;;;;;;;;;20.83;66.29;99605.66;4439970;32;34169;-82
2023/05/24 03:26:56;;;;;;;;;;;;;;;21.07;65.50;99603.88;4445002;32;34926;-80
2023/05/24 03:29:23;;;;;;;;;;;;;;;17.76;79.76;99620.22;4438300;32;34576;-80
2023/05/24 03:31:51;;;;;;;;;;;;;;;19.50;74.20;99608.75;4438070;32;33390;-80
2023/05/24 03:34:18;;;;;;;;;;;;;;;20.32;71.21;99607.31;4438977;32;33885;-82
2023/05/24 03:36:46;;;;;;;;;;;;;;;18.13;81.86;99613.69;4432091;32;34230;-80
2023/05/24 03:39:13;;;;;;;;;;;;;;;17.94;83.73;99624.81;4437741;32;34404;-80
2023/05/24 03:41:45;;;;;;;;;;;;;;;17.37;87.44;99622.31;4438303;32;34126;-81
2023/05/24 03:44:12;;;;;;;;;;;;;;;18.03;83.70;99622.31;4438221;32;33948;-80
2023/05/24 03:46:41;;;;;;;;;;;;;;;18.37;82.63;99622.66;4415740;32;34009;-83
2023/05/24 03:49:09;;;;;;;;;;;;;;;18.51;82.73;99628.94;4438276;32;34583;-79
2023/05/24 03:51:36;;;;;;;;;;;;;;;16.90;92.18;99630.28;4437907;32;33478;-80
2023/05/24 03:54:04;;;;;;;;;;;;;;;19.17;78.74;99626.03;4438049;32;33823;-80
2023/05/24 03:56:31;;;;;;;;;;;;;;;19.96;76.59;99628.25;4431103;32;32376;-80
2023/05/24 03:59:02;;;;;;;;;;;;;;;20.80;71.01;99631.97;4431411;32;34130;-82
2023/05/24 04:01:30;;;;;;;;;;;;;;;20.89;70.82;99631.97;4423802;32;31851;-83
2023/05/24 04:04:02;;;;;;;;;;;;;;;19.09;79.51;99636.47;4411958;32;33892;-80
2023/05/24 04:06:29;;;;;;;;;;;;;;;21.54;69.42;99642.50;4422754;32;34777;-83
2023/05/24 04:08:58;;;;;;;;;;;;;;;23.11;62.44;99626.69;4437650;32;35003;-83
2023/05/24 04:11:28;;;;;;;;;;;;;;;22.21;63.77;99641.34;4421786;32;33568;-81
2023/05/24 04:13:59;;;;;;;;;;;;;;;21.69;67.35;99637.19;4437295;32;34027;-80
2023/05/24 04:16:27;;;;;;;;;;;;;;;22.40;64.50;99642.16;4427939;32;33542;-81
2023/05/24 04:18:56;;;;;;;11.98;7.07;;;;;;;21.96;66.02;99637.94;4423509;32;33793;-80
2023/05/24 04:21:24;;;;;;;13.48;8.50;;;;;;;21.12;68.29;99633.75;4440486;32;33667;-81
2023/05/24 04:23:52;;;;;;;;;;;;;;;21.39;68.42;99643.34;4446712;32;33450;-81
2023/05/24 04:26:20;;;;;;;12.70;7.22;;;;;;;21.84;66.78;99640.63;4425741;32;34218;-83
2023/05/24 04:28:49;;;;;;;;;;;;;;;21.27;69.21;99644.25;4437472;32;34702;-82
2023/05/24 04:31:17;;;;;;;;;;;;;;;21.36;69.10;99644.25;4437335;32;34364;-80
2023/05/24 04:33:46;;;;;;;14.15;8.55;;;;;;;21.17;69.64;99653.94;4437723;32;34691;-81
2023/05/24 04:36:14;;;;;;;;;;;;;;;21.33;69.62;99652.16;4446014;32;34352;-81
2023/05/24 04:38:44;;;;;;;14.90;7.85;;;;;;;21.20;70.09;99655.66;4431586;32;34397;-82
2023/05/24 04:41:12;;;;;;;;;;;;;;;21.13;70.19;99659.19;4442508;32;33444;-82
2023/05/24 04:43:39;;;;;;;14.87;8.48;;;;;;;20.61;72.45;99658.28;4425665;32;33873;-82
2023/05/24 04:46:07;;;;;;;15.82;8.25;;;;;;;20.76;71.86;99660.03;4424052;32;33655;-81
2023/05/24 04:48:36;;;;;;;14.87;8.93;;;;;;;20.60;72.35;99656.50;4423391;32;34427;-81
2023/05/24 04:51:03;;;;;;;;;;;;;;;20.48;73.79;99656.47;4444123;32;33960;-83
2023/05/24 04:53:31;;;;;;;;;;;;;;;20.44;73.50;99665.22;4440755;32;34851;-81
2023/05/24 04:55:59;;;;;;;;;;;;;;;20.65;73.03;99663.53;4441784;32;33692;-81
2023/05/24 04:58:26;;;;;;;;;;;;;;;20.78;72.55;99665.31;4437375;32;34553;-82
2023/05/24 05:00:53;;;;;;;;;;;;;;;21.05;72.00;99663.56;4428918;32;33467;-81
2023/05/24 05:03:20;;;;;;;;;;;;;;;20.79;73.18;99653.91;4437639;32;35023;-77
2023/05/24 05:05:48;;;;;;;18.12;10.43;;;;;;;21.19;71.30;99667.97;4423080;32;32354;-81
2023/05/24 05:08:16;;;;;;;16.85;10.10;;;;;;;19.95;75.04;99659.78;4436496;32;34425;-81
2023/05/24 05:10:43;;;;;;;;;;;;;;;20.04;76.18;99670.34;4437452;32;34467;-81
2023/05/24 05:13:10;;;;;;;;;;;;;;;20.42;75.37;99667.00;4437414;32;34051;-82
2023/05/24 05:15:38;;;;;;;;;;;;;;;20.94;73.03;99669.72;4437332;32;35028;-83
2023/05/24 05:18:09;;;;;;;;;;;;;;;21.15;71.32;99670.59;4437457;32;33290;-79
2023/05/24 05:20:36;;;;;;;;;;;;;;;21.21;71.61;99670.63;4426883;32;34363;-81
2023/05/24 05:23:04;;;;;;;;;;;;;;;21.37;70.37;99677.59;4439367;32;34873;-83
2023/05/24 05:25:31;;;;;;;;;;;;;;;21.56;70.96;99681.13;4445004;32;34380;-79
2023/05/24 05:27:58;;;;;;;;;;;;;;;21.71;69.00;99682.88;4423336;32;34448;-82
2023/05/24 05:30:26;;;;;;;;;;;;;;;22.12;67.67;99689.75;4439069;32;33282;-81
2023/05/24 05:32:53;;;;;;;;;;;;;;;21.19;71.43;99682.91;4440203;32;33684;-83
2023/05/24 05:35:20;;;;;;;;;;;;;;;22.01;68.44;99686.28;4437256;32;33798;-81
2023/05/24 05:37:48;;;;;;;;;;;;;;;22.13;67.27;99686.22;4426790;32;34506;-82
2023/05/24 05:40:15;;;;;;;12.02;7.78;;;;;;;22.56;65.28;99686.06;4436783;32;32727;-82
2023/05/24 05:42:43;;;;;;;13.90;8.05;;;;;;;22.76;63.87;99680.63;4421877;32;34618;-81
2023/05/24 05:45:10;;;;;;;;;;;;;;;22.54;65.04;99693.12;4440612;32;33964;-80
2023/05/24 05:47:40;;;;;;;;;;;;;;;23.02;64.35;99687.50;4437000;32;34440;-80
2023/05/24 05:50:07;;;;;;;;;;;;;;;22.53;65.25;99696.63;4437193;32;33620;-82
2023/05/24 05:52:35;;;;;;;12.68;8.38;;;;;;;23.68;61.39;99692.22;4422075;32;34034;-81
2023/05/24 05:55:03;;;;;;;;;;;;;;;24.30;58.74;99697.72;4437104;32;33669;-81
2023/05/24 05:57:30;;;;;;;;;;;;;;;23.45;61.91;99710.06;4437428;32;34505;-81
2023/05/24 05:59:58;;;;;;;14.65;7.97;;;;;;;22.87;63.23;99706.09;4436907;32;33619;-83
2023/05/24 06:02:25;;;;;;;11.85;8.45;;;;;;;23.08;63.13;99700.72;4423136;32;33631;-80
2023/05/24 06:04:53;;;;;;;12.75;9.00;;;;;;;22.78;64.25;99707.03;4436509;32;33789;-84
2023/05/24 06:07:21;;;;;;;;;;;;;;;21.83;66.67;99696.87;4444817;32;33745;-80
2023/05/24 06:09:48;;;;;;;;;;;;;;;20.85;70.96;99709.22;4443336;32;32990;-79
2023/05/24 06:12:16;;;;;;;11.25;7.62;;;;;;;22.41;65.88;99711.63;4436855;32;34019;-82
2023/05/24 06:14:43;;;;;;;11.98;7.53;;;;;;;22.35;66.05;99707.28;4436264;32;34440;-82
2023/05/24 06:17:11;;;;;;;13.48;7.93;;;;;;;21.90;68.06;99706.53;4436774;32;33800;-81
2023/05/24 06:19:38;;;;;;;13.77;8.07;;;;;;;22.15;66.50;99708.19;4435696;32;33144;-82
2023/05/24 06:22:06;;;;;;;13.43;8.75;;;;;;;22.32;64.88;99707.28;4436646;32;34654;-82
2023/05/24 06:24:35;;;;;;;;;;;;;;;21.57;68.61;99706.59;4424254;32;33604;-82
2023/05/24 06:27:03;;;;;;;15.20;8.13;;;;;;;21.97;65.99;99711.78;4441482;32;34827;-79
2023/05/24 06:29:31;;;;;;;13.07;8.98;;;;;;;21.56;67.87;99714.53;4424117;32;33825;-80
2023/05/24 06:31:59;;;;;;;;;;;;;;;21.92;66.05;99712.69;4425307;32;32172;-80
2023/05/24 06:34:28;;;;;;;;;;;;;;;21.64;66.66;99715.38;4417693;32;33535;-84
2023/05/24 06:36:56;;;;;;;;;;;;;;;21.00;69.37;99724.16;4434525;32;34416;-79
2023/05/24 06:39:24;;;;;;;11.05;7.30;;;;;;;20.61;70.29;99721.44;4441972;32;33628;-80
2023/05/24 06:41:52;;;;;;;;;;;;;;;20.47;70.93;99712.59;4437002;32;33412;-81
2023/05/24 06:44:30;;;;;;;;;;;;;;;20.23;72.62;99719.53;4438462;32;34004;-81
2023/05/24 06:46:59;;;;;;;;;;;;;;;21.64;69.02;99722.44;4439734;32;34408;-80
2023/05/24 06:49:26;;;;;;;;;;;;;;;21.46;68.34;99728.56;4443139;32;33241;-80
2023/05/24 06:51:54;;;;;;;;;;;;;;;22.05;67.12;99730.22;4427568;32;34238;-81
2023/05/24 06:54:22;;;;;;;;;;;;;;;21.46;68.99;99733.84;4439357;32;33900;-80
2023/05/24 06:56:50;;;;;;;;;;;;;;;21.82;66.70;99732.06;4435885;32;34165;-80
2023/05/24 06:59:17;;;;;;;11.40;6.45;;;;;;;21.74;66.99;99730.28;4439613;32;34146;-82
2023/05/24 07:01:45;;;;;;;;;;;;;;;21.46;66.80;99734.75;4431997;32;33574;-81
2023/05/24 07:04:12;;;;;;;;;;;;;;;21.09;69.91;99739.94;4443199;32;34442;-80
2023/05/24 07:06:40;;;;;;;;;;;;;;;21.09;69.17;99745.22;4432045;32;32956;-81
2023/05/24 07:09:09;;;;;;;;;;;;;;;21.59;67.91;99738.22;4444569;32;33161;-79
2023/05/24 07:11:36;;;;;;;14.30;8.13;;;;;;;22.06;66.45;99742.53;4447262;32;33896;-80
2023/05/24 07:14:04;;;;;;;11.27;7.30;;;;;;;21.55;67.39;99744.38;4437591;32;34558;-81
2023/05/24 07:16:31;;;;;;;12.93;8.70;;;;;;;21.87;64.87;99743.47;4431267;32;33313;-82
2023/05/24 07:18:59;;;;;;;11.50;7.87;;;;;;;21.95;65.35;99749.59;4426330;32;32108;-82
2023/05/24 07:21:30;;;;;;;12.57;8.25;;;;;;;21.86;64.96;99746.97;4438720;32;34152;-82
2023/05/24 07:23:58;;;;;;;13.48;8.45;;;;;;;22.36;64.33;99761.81;4422640;32;33206;-85
2023/05/24 07:26:26;;;;;;;11.75;6.78;;;;;;;23.02;61.35;99747.38;4425478;32;33497;-82
2023/05/24 07:28:53;;;;;;;12.60;7.45;;;;;;;22.89;60.86;99750.13;4421795;32;33206;-81
2023/05/24 07:31:21;;;;;;;;;;;;;;;23.00;61.43;99765.00;4441842;32;34034;-82
2023/05/24 07:33:49;;;;;;;;;;;;;;;22.09;63.20;99763.63;4425241;32;35778;-82
2023/05/24 07:36:16;;;;;;;;;;;;;;;22.03;64.49;99763.63;4439419;32;34423;-83
2023/05/24 07:38:44;;;;;;;;;;;;;;;22.15;64.16;99760.97;4438494;32;34208;-82
2023/05/24 07:41:12;;;;;;;;;;;;;;;20.79;67.97;99769.75;4424732;32;35251;-83
2023/05/24 07:43:39;;;;;;;9.95;6.32;;;;;;;22.43;62.57;99767.97;4437973;32;34216;-83
2023/05/24 07:46:07;;;;;;;10.65;7.05;;;;;;;22.82;60.57;99756.31;4428527;32;33044;-81
2023/05/24 07:48:34;;;;;;;9.65;6.18;;;;;;;22.79;60.20;99756.31;4425216;32;32827;-81
2023/05/24 07:51:02;;;;;;;12.93;8.50;;;;;;;23.24;58.75;99764.00;4434174;32;33285;-84
2023/05/24 07:53:30;;;;;;;;;;;;;;;22.90;59.94;99762.41;4421852;32;32432;-82
2023/05/24 07:55:57;;;;;;;9.38;5.97;;;;;;;23.27;58.46;99756.91;4440854;32;34393;-81
2023/05/24 07:58:25;;;;;;;8.63;5.97;;;;;;;23.85;56.40;99752.03;4438237;32;33625;-82
2023/05/24 08:00:55;;;;;;;10.95;7.03;;;;;;;23.85;56.85;99759.97;4438562;32;33593;-83
2023/05/24 08:03:24;;;;;;;10.20;6.28;;;;;;;24.09;56.84;99762.34;4424226;32;33949;-83
2023/05/24 08:05:52;;;;;;;;;;;;;;;25.43;53.88;99772.94;4439672;32;34159;-81
2023/05/24 08:08:19;;;;;;;;;;;;;;;24.75;54.57;99766.00;4424477;32;33724;-84
2023/05/24 08:10:47;;;;;;;;;;;;;;;24.75;55.25;99779.22;4439159;32;35021;-82
2023/05/24 08:13:14;;;;;;;;;;;;;;;24.90;55.08;99772.84;4424991;32;34302;-82
2023/05/24 08:15:41;;;;;;;;;;;;;;;25.12;54.12;99774.28;4428602;32;34667;-83
2023/05/24 08:18:09;;;;;;;;;;;;;;;25.33;52.87;99766.06;4438242;32;33417;-81
2023/05/24 08:20:37;;;;;;;;;;;;;;;24.89;54.63;99771.97;4438384;32;33560;-82
2023/05/24 08:23:05;;;;;;;;;;;;;;;25.27;52.51;99778.50;4443185;32;33995;-82
2023/05/24 08:25:33;;;;;;;;;;;;;;;25.09;51.89;99769.03;4446222;32;34661;-81
2023/05/24 08:28:00;;;;;;;;;;;;;;;24.60;53.63;99776.78;4437934;32;32657;-81
2023/05/24 08:30:28;;;;;;;;;;;;;;;24.75;53.67;99779.22;4438715;32;34149;-82
2023/05/24 08:32:56;;;;;;;;;;;;;;;25.05;54.44;99782.34;4438690;32;34155;-81
2023/05/24 08:35:24;;;;;;;;;;;;;;;25.09;51.30;99789.34;4441667;32;34440;-82
2023/05/24 08:37:51;;;;;;;;;;;;;;;24.68;52.78;99793.44;4438860;32;32962;-82
2023/05/24 08:40:19;;;;;;;;;;;;;;;24.41;54.84;99787.56;4442697;32;34798;-80
2023/05/24 08:42:46;;;;;;;;;;;;;;;25.02;54.06;99799.16;4429078;32;34428;-79
2023/05/24 08:45:14;;;;;;;;;;;;;;;25.07;53.12;99796.44;4442064;32;34311;-81
2023/05/24 08:47:42;;;;;;;;;;;;;;;25.09;52.96;99794.63;4427548;32;33260;-81
2023/05/24 08:50:09;;;;;;;;;;;;;;;24.40;54.42;99799.06;4421106;32;32220;-82
2023/05/24 08:52:38;;;;;;;;;;;;;;;23.87;56.13;99800.50;4438401;32;34962;-81
2023/05/24 08:55:06;;;;;;;;;;;;;;;23.81;55.76;99803.22;4432089;32;35226;-81
2023/05/24 08:57:33;;;;;;;;;;;;;;;24.22;55.66;99792.22;4439234;32;33401;-81
2023/05/24 09:00:01;;;;;;;;;;;;;;;23.73;56.17;99806.75;4416677;32;33985;-79
2023/05/24 09:02:29;;;;;;;;;;;;;;;23.51;55.78;99800.78;4443441;32;33753;-82
2023/05/24 09:04:56;;;;;;;;;;;;;;;23.87;55.87;99806.66;4434514;32;35105;-80
2023/05/24 09:07:23;;;;;;;;;;;;;;;24.25;56.42;99804.53;4437714;32;33578;-81
2023/05/24 09:10:03;;;;;;;;;;;;;;;24.89;54.02;99809.06;4424134;32;31301;-79
2023/05/24 09:12:31;;;;;;;;;;;;;;;24.26;54.52;99800.97;4423849;32;33324;-81
2023/05/24 09:15:06;;;;;;;8.90;5.32;;;;;;;23.89;55.36;99806.66;4436894;32;34235;-83
2023/05/24 09:17:35;;;;;;;8.35;5.37;;;;;;;23.52;56.57;99817.53;4446106;32;32701;-79
2023/05/24 09:20:05;;;;;;;10.05;6.85;;;;;;;23.02;57.59;99810.78;4437552;32;34457;-80
2023/05/24 09:22:33;;;;;;;;;;;;;;;23.41;58.02;99824.66;4447335;32;34364;-80
2023/05/24 09:25:05;;;;;;;;;;;;;;;23.30;57.17;99812.41;4429012;32;33296;-80
2023/05/24 09:27:33;;;;;;;;;;;;;;;23.86;56.86;99812.00;4435914;32;32997;-81
2023/05/24 09:30:03;;;;;;;;;;;;;;;23.91;56.40;99811.06;4427329;32;33895;-82
2023/05/24 09:32:31;;;;;;;;;;;;;;;24.61;54.72;99815.59;4423962;32;34107;-79
2023/05/24 09:34:58;;;;;;;;;;;;;;;23.85;55.41;99813.72;4425061;32;35477;-83
2023/05/24 09:37:28;;;;;;;;;;;;;;;24.13;54.77;99811.72;4437746;32;34912;-79
2023/05/24 09:39:58;;;;;;;;;;;;;;;24.21;55.48;99813.41;4425461;32;33885;-82
2023/05/24 09:42:29;;;;;;;;;;;;;;;24.39;54.71;99812.31;4436694;32;33336;-81
2023/05/24 09:45:01;;;;;;;;;;;;;;;24.23;53.08;99806.31;4425584;32;34967;-81
2023/05/24 09:47:31;;;;;;;;;;;;;;;24.59;54.38;99809.44;4446761;32;33274;-82
2023/05/24 09:49:59;;;;;;;;;;;;;;;24.51;53.72;99805.16;4426593;32;34859;-82
2023/05/24 09:52:27;;;;;;;;;;;;;;;23.92;54.46;99811.94;4433042;32;34401;-79
2023/05/24 09:54:55;;;;;;;;;;;;;;;24.03;54.59;99810.06;4424476;32;34566;-80
2023/05/24 09:57:22;;;;;;;;;;;;;;;24.57;54.94;99816.53;4440027;32;34460;-81
2023/05/24 09:59:50;;;;;;;;;;;;;;;24.17;53.71;99806.41;4441363;32;34905;-82
2023/05/24 10:02:20;;;;;;;;;;;;;;;24.22;53.57;99805.44;4426879;32;34028;-80
2023/05/24 10:04:47;;;;;;;;;;;;;;;24.24;54.03;99814.25;4431114;32;33879;-79
2023/05/24 10:07:15;;;;;;;;;;;;;;;24.35;55.59;99814.12;4426411;32;34218;-79
2023/05/24 10:09:42;;;;;;;;;;;;;;;23.45;58.16;99829.03;4425497;32;34829;-80
2023/05/24 10:12:10;;;;;;;;;;;;;;;24.45;54.29;99813.09;4432273;32;34246;-81
2023/05/24 10:14:37;;;;;;;;;;;;;;;24.31;55.52;99821.22;4425323;32;34445;-83
2023/05/24 10:17:05;;;;;;;;;;;;;;;23.46;57.84;99823.72;4436991;32;33430;-83
2023/05/24 10:19:34;;;;;;;;;;;;;;;24.26;55.21;99811.56;4437658;32;34866;-82
2023/05/24 10:25:17;;;;;;;;;;;;;;;24.97;52.78;99816.91;4418227;32;34750;-81
2023/05/24 10:27:44;;;;;;;;;;;;;;;25.35;50.15;99817.28;4435352;32;33756;-82
2023/05/24 10:30:24;;;;;;;;;;;;;;;25.62;49.94;99822.12;4421314;32;33772;-84
2023/05/24 10:32:52;;;;;;;;;;;;;;;26.52;48.49;99815.22;4435824;32;33825;-82
2023/05/24 10:35:20;;;;;;;;;;;;;;;26.24;47.91;99816.63;4422179;32;35089;-83
2023/05/24 10:37:47;;;;;;;;;;;;;;;23.73;56.09;99811.19;4442461;32;33623;-83
2023/05/24 10:40:15;;;;;;;;;;;;;;;24.51;54.97;99807.78;4419335;32;33745;-81
2023/05/24 10:42:43;;;;;;;;;;;;;;;25.64;49.72;99807.06;4425392;32;32579;-81
2023/05/24 10:45:26;;;;;;;;;;;;;;;25.66;48.81;99807.06;4436135;32;34077;-82
2023/05/24 10:47:55;;;;;;;;;;;;;;;25.44;48.68;99801.19;4436282;32;33337;-79
2023/05/24 10:50:23;;;;;;;7.32;4.07;;;;;;;25.59;49.77;99803.59;4422055;32;33947;-81
2023/05/24 10:52:50;;;;;;;;;;;;;;;25.86;48.88;99796.06;4435751;32;33635;-79
2023/05/24 10:55:18;;;;;;;;;;;;;;;25.69;50.01;99797.28;4435874;32;34289;-80
2023/05/24 10:57:46;;;;;;;;;;;;;;;26.20;47.97;99799.03;4436001;32;33599;-78
2023/05/24 11:00:19;;;;;;;;;;;;;;;25.79;49.53;99802.41;4434913;32;34159;-82
2023/05/24 11:03:02;;;;;;;;;;;;;;;25.97;49.65;99791.50;4434272;32;33218;-79
2023/05/24 11:05:34;;;;;;;;;;;;;;;26.75;46.74;99797.03;4436614;32;34698;-80
2023/05/24 11:08:03;;;;;;;;;;;;;;;26.25;48.54;99790.97;4422499;32;34075;-80
2023/05/24 11:10:30;;;;;;;;;;;;;;;25.92;48.98;99793.34;4446117;32;34168;-81
2023/05/24 11:13:01;;;;;;;;;;;;;;;25.85;50.26;99792.56;4423190;32;34325;-80
2023/05/24 11:15:29;;;;;;;;;;;;;;;25.92;48.24;99798.66;4437726;32;34468;-81
2023/05/24 11:18:05;;;;;;;;;;;;;;;25.94;47.25;99796.88;4424618;32;33298;-81
2023/05/24 11:20:35;;;;;;;;;;;;;;;25.65;48.23;99795.56;4433849;32;33721;-82
2023/05/24 11:23:03;;;;;;;;;;;;;;;25.65;48.00;99795.56;4427780;32;33948;-83
2023/05/24 11:25:36;;;;;;;;;;;;;;;27.21;45.22;99793.34;4439378;32;34414;-83
2023/05/24 11:28:10;;;;;;;;;;;;;;;26.89;43.83;99794.09;4430863;32;33679;-82
2023/05/24 11:30:47;;;;;;;7.82;3.08;;;;;;;26.27;45.49;99789.19;4447215;32;34062;-82
2023/05/24 11:33:14;;;;;;;;;;;;;;;26.32;45.12;99787.28;4414536;32;33553;-85
2023/05/24 11:35:42;;;;;;;;;;;;;;;25.47;47.11;99780.81;4438669;32;34681;-84
2023/05/24 11:38:12;;;;;;;;;;;;;;;26.19;44.66;99788.41;4434308;32;33346;-84
2023/05/24 11:40:44;;;;;;;5.50;3.37;;;;;;;26.32;43.51;99776.66;4423120;32;33633;-84
2023/05/24 11:43:13;;;;;;;;;;;;;;;26.40;44.36;99780.03;4428997;32;34522;-83
2023/05/24 11:45:44;;;;;;;;;;;;;;;26.22;46.10;99783.94;4445389;32;33761;-82
2023/05/24 11:48:11;;;;;;;;;;;;;;;25.48;48.29;99787.03;4437728;32;33488;-82
2023/05/24 11:50:40;;;;;;;;;;;;;;;24.00;50.29;99778.31;4429307;32;32376;-82
2023/05/24 11:53:17;;;;;;;;;;;;;;;26.42;47.42;99772.91;4450905;32;34897;-81
2023/05/24 11:55:45;;;;;;;;;;;;;;;25.91;45.52;99770.38;4427466;32;34952;-83
2023/05/24 11:58:12;;;;;;;;;;;;;;;26.33;44.70;99775.78;4427181;32;33370;-82
2023/05/24 12:00:41;;;;;;;;;;;;;;;25.92;45.62;99772.13;4437776;32;34071;-83
2023/05/24 12:03:09;;;;;;;;;;;;;;;25.06;48.53;99778.81;4414704;32;32359;-84
2023/05/24 12:05:36;;;;;;;;;;;;;;;25.04;48.99;99770.88;4445616;32;34929;-82
2023/05/24 12:08:05;;;;;;;;;;;;;;;25.75;46.60;99771.50;4437469;32;33656;-83
2023/05/24 12:10:36;;;;;;;;;;;;;;;26.12;44.17;99769.09;4438105;32;34113;-83
2023/05/24 12:13:04;;;;;;;;;;;;;;;25.49;46.09;99773.72;4429341;32;33859;-82
2023/05/24 12:15:31;;;;;;;;;;;;;;;26.40;43.87;99774.72;4415491;32;33597;-84
2023/05/24 12:17:59;;;;;;;;;;;;;;;27.20;42.07;99778.31;4436029;32;33123;-82
2023/05/24 12:20:27;;;;;;;5.28;2.70;;;;;;;26.93;41.99;99768.34;4423629;32;33361;-83
2023/05/24 12:22:55;;;;;;;4.55;2.47;;;;;;;26.79;41.07;99772.19;4422377;32;33120;-83
2023/05/24 12:25:25;;;;;;;;;;;;;;;26.09;41.92;99771.81;4438066;32;34201;-83
2023/05/24 12:27:54;;;;;;;;;;;;;;;26.22;42.37;99778.63;4421960;32;34101;-82
2023/05/24 12:30:22;;;;;;;;;;;;;;;25.07;45.14;99775.22;4438977;32;33775;-85
2023/05/24 12:32:50;;;;;;;;;;;;;;;25.70;46.37;99771.59;4438469;32;33679;-81
2023/05/24 12:35:17;;;;;;;;;;;;;;;25.48;45.79;99771.97;4441999;32;34537;-81
2023/05/24 12:37:45;;;;;;;;;;;;;;;26.88;43.29;99766.63;4428233;32;33485;-83
2023/05/24 12:40:20;;;;;;;;;;;;;;;27.38;40.85;99760.19;4445931;32;34124;-81